sensor_id;sensor_type;location;lat;lon;timestamp;temperature;humidity
47521;DHT22;32291;52.010;4.446;2023-06-01T00:00:24;12.10;99.90
47521;DHT22;32291;52.010;4.446;2023-06-01T00:01:27;12.10;99.90
47521;DHT22;32291;52.010;4.446;2023-06-01T00:02:34;12.10;99.90
47521;DHT22;32291;52.010;4.446;2023-06-01T00:03:36;12.20;99.90
47521;DHT22;32291;52.010;4.446;2023-06-01T00:04:39;12.20;99.90
47521;DHT22;32291;52.010;4.446;2023-06-01T00:05:41;12.20;99.90
47521;DHT22;32291;52.010;4.446;2023-06-01T00:06:43;12.20;99.90
47521;DHT22;32291;52.010;4.446;2023-06-01T00:07:45;12.20;99.90
47521;DHT22;32291;52.010;4.446;2023-06-01T00:08:48;12.10;99.90
47521;DHT22;32291;52.010;4.446;2023-06-01T00:09:51;12.20;99.90
47521;DHT22;32291;52.010;4.446;2023-06-01T00:10:53;12.20;99.90
47521;DHT22;32291;52.010;4.446;2023-06-01T00:11:55;12.20;99.90
47521;DHT22;32291;52.010;4.446;2023-06-01T00:12:56;12.20;99.90
47521;DHT22;32291;52.010;4.446;2023-06-01T00:13:59;12.20;99.90
47521;DHT22;32291;52.010;4.446;2023-06-01T00:15:00;12.20;99.90
47521;DHT22;32291;52.010;4.446;2023-06-01T00:16:05;12.20;99.90
47521;DHT22;32291;52.010;4.446;2023-06-01T00:17:07;12.30;99.90
47521;DHT22;32291;52.010;4.446;2023-06-01T00:18:12;12.30;99.90
47521;DHT22;32291;52.010;4.446;2023-06-01T00:19:14;12.40;99.90
47521;DHT22;32291;52.010;4.446;2023-06-01T00:20:18;12.40;99.90
47521;DHT22;32291;52.010;4.446;2023-06-01T00:21:20;12.40;99.90
47521;DHT22;32291;52.010;4.446;2023-06-01T00:22:22;12.40;99.90
47521;DHT22;32291;52.010;4.446;2023-06-01T00:23:25;12.40;99.90
47521;DHT22;32291;52.010;4.446;2023-06-01T00:24:27;12.40;99.90
47521;DHT22;32291;52.010;4.446;2023-06-01T00:25:29;12.50;99.90
47521;DHT22;32291;52.010;4.446;2023-06-01T00:26:31;12.50;99.90
47521;DHT22;32291;52.010;4.446;2023-06-01T00:27:33;12.50;99.90
47521;DHT22;32291;52.010;4.446;2023-06-01T00:28:36;12.50;99.90
47521;DHT22;32291;52.010;4.446;2023-06-01T00:29:38;12.40;99.90
47521;DHT22;32291;52.010;4.446;2023-06-01T00:30:43;12.40;99.90
47521;DHT22;32291;52.010;4.446;2023-06-01T00:31:48;12.40;99.90
47521;DHT22;32291;52.010;4.446;2023-06-01T00:32:49;12.50;99.90
47521;DHT22;32291;52.010;4.446;2023-06-01T00:33:52;12.50;99.90
47521;DHT22;32291;52.010;4.446;2023-06-01T00:34:53;12.50;99.90
47521;DHT22;32291;52.010;4.446;2023-06-01T00:35:55;12.50;99.90
47521;DHT22;32291;52.010;4.446;2023-06-01T00:37:00;12.50;99.90
47521;DHT22;32291;52.010;4.446;2023-06-01T00:38:02;12.50;99.90
47521;DHT22;32291;52.010;4.446;2023-06-01T00:39:04;12.50;99.90
47521;DHT22;32291;52.010;4.446;2023-06-01T00:40:06;12.50;99.90
47521;DHT22;32291;52.010;4.446;2023-06-01T00:41:09;12.50;99.90
47521;DHT22;32291;52.010;4.446;2023-06-01T00:42:10;12.50;99.90
47521;DHT22;32291;52.010;4.446;2023-06-01T00:43:12;12.50;99.90
47521;DHT22;32291;52.010;4.446;2023-06-01T00:44:14;12.50;99.90
47521;DHT22;32291;52.010;4.446;2023-06-01T00:45:16;12.50;99.90
47521;DHT22;32291;52.010;4.446;2023-06-01T00:46:17;12.60;99.90
47521;DHT22;32291;52.010;4.446;2023-06-01T00:47:19;12.50;99.90
47521;DHT22;32291;52.010;4.446;2023-06-01T00:48:24;12.50;99.90
47521;DHT22;32291;52.010;4.446;2023-06-01T00:49:26;12.50;99.90
47521;DHT22;32291;52.010;4.446;2023-06-01T00:50:29;12.50;99.90
47521;DHT22;32291;52.010;4.446;2023-06-01T00:51:33;12.50;99.90
47521;DHT22;32291;52.010;4.446;2023-06-01T00:52:38;12.50;99.90
47521;DHT22;32291;52.010;4.446;2023-06-01T00:53:43;12.50;99.90
47521;DHT22;32291;52.010;4.446;2023-06-01T00:54:45;12.50;99.90
47521;DHT22;32291;52.010;4.446;2023-06-01T00:55:47;12.50;99.90
47521;DHT22;32291;52.010;4.446;2023-06-01T00:56:48;12.40;99.90
47521;DHT22;32291;52.010;4.446;2023-06-01T00:57:52;12.40;99.90
47521;DHT22;32291;52.010;4.446;2023-06-01T00:58:56;12.40;99.90
47521;DHT22;32291;52.010;4.446;2023-06-01T00:59:58;12.40;99.90
47521;DHT22;32291;52.010;4.446;2023-06-01T01:01:03;12.40;99.90
47521;DHT22;32291;52.010;4.446;2023-06-01T01:02:05;12.40;99.90
47521;DHT22;32291;52.010;4.446;2023-06-01T01:03:07;12.40;99.90
47521;DHT22;32291;52.010;4.446;2023-06-01T01:04:10;12.40;99.90
47521;DHT22;32291;52.010;4.446;2023-06-01T01:05:15;12.40;99.90
47521;DHT22;32291;52.010;4.446;2023-06-01T01:08:03;12.40;99.90
47521;DHT22;32291;52.010;4.446;2023-06-01T01:09:22;12.40;99.90
47521;DHT22;32291;52.010;4.446;2023-06-01T01:10:41;12.40;99.90
47521;DHT22;32291;52.010;4.446;2023-06-01T01:12:02;12.40;99.90
47521;DHT22;32291;52.010;4.446;2023-06-01T01:13:27;12.50;99.90
47521;DHT22;32291;52.010;4.446;2023-06-01T01:16:39;12.50;99.90
47521;DHT22;32291;52.010;4.446;2023-06-01T01:17:52;12.50;99.90
47521;DHT22;32291;52.010;4.446;2023-06-01T01:20:56;12.50;99.90
47521;DHT22;32291;52.010;4.446;2023-06-01T01:22:20;12.50;99.90
47521;DHT22;32291;52.010;4.446;2023-06-01T01:29:35;12.50;99.90
47521;DHT22;32291;52.010;4.446;2023-06-01T01:30:42;12.40;99.90
47521;DHT22;32291;52.010;4.446;2023-06-01T01:31:45;12.40;99.90
47521;DHT22;32291;52.010;4.446;2023-06-01T01:32:51;12.40;99.90
47521;DHT22;32291;52.010;4.446;2023-06-01T01:33:56;12.30;99.90
47521;DHT22;32291;52.010;4.446;2023-06-01T01:35:00;12.30;99.90
47521;DHT22;32291;52.010;4.446;2023-06-01T01:36:04;12.40;99.90
47521;DHT22;32291;52.010;4.446;2023-06-01T01:37:08;12.40;99.90
47521;DHT22;32291;52.010;4.446;2023-06-01T01:38:09;12.40;99.90
47521;DHT22;32291;52.010;4.446;2023-06-01T01:39:11;12.40;99.90
47521;DHT22;32291;52.010;4.446;2023-06-01T01:40:13;12.40;99.90
47521;DHT22;32291;52.010;4.446;2023-06-01T01:41:16;12.40;99.90
47521;DHT22;32291;52.010;4.446;2023-06-01T01:42:18;12.40;99.90
47521;DHT22;32291;52.010;4.446;2023-06-01T01:43:23;12.50;99.90
47521;DHT22;32291;52.010;4.446;2023-06-01T01:44:26;12.50;99.90
47521;DHT22;32291;52.010;4.446;2023-06-01T01:45:28;12.50;99.90
47521;DHT22;32291;52.010;4.446;2023-06-01T01:46:42;12.70;99.90
47521;DHT22;32291;52.010;4.446;2023-06-01T01:48:20;12.50;99.90
47521;DHT22;32291;52.010;4.446;2023-06-01T01:51:16;12.40;99.90
47521;DHT22;32291;52.010;4.446;2023-06-01T01:52:31;12.40;99.90
47521;DHT22;32291;52.010;4.446;2023-06-01T01:53:35;12.50;99.90
47521;DHT22;32291;52.010;4.446;2023-06-01T01:54:43;12.40;99.90
47521;DHT22;32291;52.010;4.446;2023-06-01T01:55:49;12.50;99.90
47521;DHT22;32291;52.010;4.446;2023-06-01T01:56:55;12.50;99.90
47521;DHT22;32291;52.010;4.446;2023-06-01T01:57:59;12.50;99.90
47521;DHT22;32291;52.010;4.446;2023-06-01T01:59:07;12.50;99.90
47521;DHT22;32291;52.010;4.446;2023-06-01T02:00:10;12.60;99.90
47521;DHT22;32291;52.010;4.446;2023-06-01T02:01:14;12.50;99.90
47521;DHT22;32291;52.010;4.446;2023-06-01T02:02:17;12.40;99.90
47521;DHT22;32291;52.010;4.446;2023-06-01T02:03:19;12.50;99.90
47521;DHT22;32291;52.010;4.446;2023-06-01T02:04:21;12.50;99.90
47521;DHT22;32291;52.010;4.446;2023-06-01T02:05:23;12.40;99.90
47521;DHT22;32291;52.010;4.446;2023-06-01T02:06:25;12.40;99.90
47521;DHT22;32291;52.010;4.446;2023-06-01T02:07:27;12.40;99.90
47521;DHT22;32291;52.010;4.446;2023-06-01T02:08:28;12.40;99.90
47521;DHT22;32291;52.010;4.446;2023-06-01T02:09:31;12.40;99.90
47521;DHT22;32291;52.010;4.446;2023-06-01T02:10:35;12.40;99.90
47521;DHT22;32291;52.010;4.446;2023-06-01T02:11:37;12.50;99.90
47521;DHT22;32291;52.010;4.446;2023-06-01T02:12:39;12.40;99.90
47521;DHT22;32291;52.010;4.446;2023-06-01T02:13:41;12.40;99.90
47521;DHT22;32291;52.010;4.446;2023-06-01T02:14:43;12.60;99.90
47521;DHT22;32291;52.010;4.446;2023-06-01T02:15:46;12.50;99.90
47521;DHT22;32291;52.010;4.446;2023-06-01T02:16:47;12.50;99.90
47521;DHT22;32291;52.010;4.446;2023-06-01T02:17:49;12.50;99.90
47521;DHT22;32291;52.010;4.446;2023-06-01T02:18:52;12.40;99.90
47521;DHT22;32291;52.010;4.446;2023-06-01T02:19:54;12.40;99.90
47521;DHT22;32291;52.010;4.446;2023-06-01T02:20:56;12.40;99.90
47521;DHT22;32291;52.010;4.446;2023-06-01T02:21:59;12.40;99.90
47521;DHT22;32291;52.010;4.446;2023-06-01T02:23:01;12.40;99.90
47521;DHT22;32291;52.010;4.446;2023-06-01T02:24:03;12.40;99.90
47521;DHT22;32291;52.010;4.446;2023-06-01T02:25:09;12.40;99.90
47521;DHT22;32291;52.010;4.446;2023-06-01T02:26:10;12.40;99.90
47521;DHT22;32291;52.010;4.446;2023-06-01T02:27:12;12.50;99.90
47521;DHT22;32291;52.010;4.446;2023-06-01T02:28:14;12.40;99.90
47521;DHT22;32291;52.010;4.446;2023-06-01T02:29:15;12.40;99.90
47521;DHT22;32291;52.010;4.446;2023-06-01T02:30:22;12.40;99.90
47521;DHT22;32291;52.010;4.446;2023-06-01T02:31:23;12.50;99.90
47521;DHT22;32291;52.010;4.446;2023-06-01T02:32:25;12.40;99.90
47521;DHT22;32291;52.010;4.446;2023-06-01T02:33:28;12.40;99.90
47521;DHT22;32291;52.010;4.446;2023-06-01T02:34:29;12.40;99.90
47521;DHT22;32291;52.010;4.446;2023-06-01T02:35:32;12.40;99.90
47521;DHT22;32291;52.010;4.446;2023-06-01T02:36:34;12.40;99.90
47521;DHT22;32291;52.010;4.446;2023-06-01T02:37:36;12.30;99.90
47521;DHT22;32291;52.010;4.446;2023-06-01T02:38:38;12.40;99.90
47521;DHT22;32291;52.010;4.446;2023-06-01T02:39:40;12.40;99.90
47521;DHT22;32291;52.010;4.446;2023-06-01T02:40:42;12.40;99.90
47521;DHT22;32291;52.010;4.446;2023-06-01T02:41:44;12.40;99.90
47521;DHT22;32291;52.010;4.446;2023-06-01T02:42:46;12.40;99.90
47521;DHT22;32291;52.010;4.446;2023-06-01T02:43:48;12.40;99.90
47521;DHT22;32291;52.010;4.446;2023-06-01T02:44:52;12.40;99.90
47521;DHT22;32291;52.010;4.446;2023-06-01T02:45:54;12.40;99.90
47521;DHT22;32291;52.010;4.446;2023-06-01T02:46:56;12.30;99.90
47521;DHT22;32291;52.010;4.446;2023-06-01T02:47:58;12.30;99.90
47521;DHT22;32291;52.010;4.446;2023-06-01T02:49:00;12.40;99.90
47521;DHT22;32291;52.010;4.446;2023-06-01T02:50:02;12.30;99.90
47521;DHT22;32291;52.010;4.446;2023-06-01T02:51:06;12.30;99.90
47521;DHT22;32291;52.010;4.446;2023-06-01T02:52:08;12.30;99.90
47521;DHT22;32291;52.010;4.446;2023-06-01T02:53:10;12.30;99.90
47521;DHT22;32291;52.010;4.446;2023-06-01T02:54:11;12.30;99.90
47521;DHT22;32291;52.010;4.446;2023-06-01T02:55:13;12.20;99.90
47521;DHT22;32291;52.010;4.446;2023-06-01T02:56:15;12.30;99.90
47521;DHT22;32291;52.010;4.446;2023-06-01T02:57:17;12.20;99.90
47521;DHT22;32291;52.010;4.446;2023-06-01T02:58:19;12.20;99.90
47521;DHT22;32291;52.010;4.446;2023-06-01T02:59:31;12.10;99.90
47521;DHT22;32291;52.010;4.446;2023-06-01T03:00:33;12.20;99.90
47521;DHT22;32291;52.010;4.446;2023-06-01T03:01:35;12.20;99.90
47521;DHT22;32291;52.010;4.446;2023-06-01T03:02:37;12.20;99.90
47521;DHT22;32291;52.010;4.446;2023-06-01T03:03:38;12.20;99.90
47521;DHT22;32291;52.010;4.446;2023-06-01T03:04:40;12.20;99.90
47521;DHT22;32291;52.010;4.446;2023-06-01T03:05:42;12.20;99.90
47521;DHT22;32291;52.010;4.446;2023-06-01T03:06:45;12.20;99.90
47521;DHT22;32291;52.010;4.446;2023-06-01T03:07:47;12.20;99.90
47521;DHT22;32291;52.010;4.446;2023-06-01T03:08:49;12.20;99.90
47521;DHT22;32291;52.010;4.446;2023-06-01T03:09:52;12.20;99.90
47521;DHT22;32291;52.010;4.446;2023-06-01T03:10:56;12.20;99.90
47521;DHT22;32291;52.010;4.446;2023-06-01T03:11:57;12.20;99.90
47521;DHT22;32291;52.010;4.446;2023-06-01T03:13:00;12.20;99.90
47521;DHT22;32291;52.010;4.446;2023-06-01T03:14:02;12.20;99.90
47521;DHT22;32291;52.010;4.446;2023-06-01T03:15:05;12.20;99.90
47521;DHT22;32291;52.010;4.446;2023-06-01T03:16:07;12.20;99.90
47521;DHT22;32291;52.010;4.446;2023-06-01T03:17:08;12.20;99.90
47521;DHT22;32291;52.010;4.446;2023-06-01T03:18:10;12.10;99.90
47521;DHT22;32291;52.010;4.446;2023-06-01T03:19:12;12.10;99.90
47521;DHT22;32291;52.010;4.446;2023-06-01T03:20:13;12.20;99.90
47521;DHT22;32291;52.010;4.446;2023-06-01T03:21:19;12.20;99.90
47521;DHT22;32291;52.010;4.446;2023-06-01T03:22:22;12.20;99.90
47521;DHT22;32291;52.010;4.446;2023-06-01T03:23:24;12.20;99.90
47521;DHT22;32291;52.010;4.446;2023-06-01T03:24:26;12.10;99.90
47521;DHT22;32291;52.010;4.446;2023-06-01T03:25:29;12.10;99.90
47521;DHT22;32291;52.010;4.446;2023-06-01T03:26:30;12.10;99.90
47521;DHT22;32291;52.010;4.446;2023-06-01T03:27:33;12.10;99.90
47521;DHT22;32291;52.010;4.446;2023-06-01T03:28:34;12.10;99.90
47521;DHT22;32291;52.010;4.446;2023-06-01T03:29:36;12.00;99.90
47521;DHT22;32291;52.010;4.446;2023-06-01T03:30:39;12.00;99.90
47521;DHT22;32291;52.010;4.446;2023-06-01T03:31:41;12.00;99.90
47521;DHT22;32291;52.010;4.446;2023-06-01T03:32:44;12.10;99.90
47521;DHT22;32291;52.010;4.446;2023-06-01T03:33:46;12.00;99.90
47521;DHT22;32291;52.010;4.446;2023-06-01T03:34:47;12.10;99.90
47521;DHT22;32291;52.010;4.446;2023-06-01T03:35:49;12.10;99.90
47521;DHT22;32291;52.010;4.446;2023-06-01T03:36:51;12.10;99.90
47521;DHT22;32291;52.010;4.446;2023-06-01T03:37:53;12.10;99.90
47521;DHT22;32291;52.010;4.446;2023-06-01T03:38:55;12.10;99.90
47521;DHT22;32291;52.010;4.446;2023-06-01T03:39:57;12.10;99.90
47521;DHT22;32291;52.010;4.446;2023-06-01T03:40:58;12.10;99.90
47521;DHT22;32291;52.010;4.446;2023-06-01T03:42:00;12.20;99.90
47521;DHT22;32291;52.010;4.446;2023-06-01T03:43:02;12.20;99.90
47521;DHT22;32291;52.010;4.446;2023-06-01T03:44:04;12.20;99.90
47521;DHT22;32291;52.010;4.446;2023-06-01T03:45:07;12.20;99.90
47521;DHT22;32291;52.010;4.446;2023-06-01T03:46:10;12.20;99.90
47521;DHT22;32291;52.010;4.446;2023-06-01T03:47:11;12.20;99.90
47521;DHT22;32291;52.010;4.446;2023-06-01T03:48:15;12.30;99.90
47521;DHT22;32291;52.010;4.446;2023-06-01T03:49:17;12.20;99.90
47521;DHT22;32291;52.010;4.446;2023-06-01T03:50:19;12.20;99.90
47521;DHT22;32291;52.010;4.446;2023-06-01T03:51:21;12.20;99.90
47521;DHT22;32291;52.010;4.446;2023-06-01T03:52:22;12.20;99.90
47521;DHT22;32291;52.010;4.446;2023-06-01T03:53:25;12.20;99.90
47521;DHT22;32291;52.010;4.446;2023-06-01T03:54:28;12.30;99.90
47521;DHT22;32291;52.010;4.446;2023-06-01T03:55:30;12.30;99.90
47521;DHT22;32291;52.010;4.446;2023-06-01T03:56:35;12.30;99.90
47521;DHT22;32291;52.010;4.446;2023-06-01T03:57:37;12.30;99.90
47521;DHT22;32291;52.010;4.446;2023-06-01T03:58:39;12.30;99.90
47521;DHT22;32291;52.010;4.446;2023-06-01T03:59:41;12.20;99.90
47521;DHT22;32291;52.010;4.446;2023-06-01T04:00:43;12.20;99.90
47521;DHT22;32291;52.010;4.446;2023-06-01T04:01:47;12.10;99.90
47521;DHT22;32291;52.010;4.446;2023-06-01T04:02:53;12.10;99.90
47521;DHT22;32291;52.010;4.446;2023-06-01T04:03:56;12.10;99.90
47521;DHT22;32291;52.010;4.446;2023-06-01T04:04:59;12.20;99.90
47521;DHT22;32291;52.010;4.446;2023-06-01T04:06:02;12.20;99.90
47521;DHT22;32291;52.010;4.446;2023-06-01T04:07:06;12.20;99.90
47521;DHT22;32291;52.010;4.446;2023-06-01T04:08:10;12.20;99.90
47521;DHT22;32291;52.010;4.446;2023-06-01T04:09:12;12.20;99.90
47521;DHT22;32291;52.010;4.446;2023-06-01T04:10:16;12.20;99.90
47521;DHT22;32291;52.010;4.446;2023-06-01T04:11:18;12.20;99.90
47521;DHT22;32291;52.010;4.446;2023-06-01T04:12:20;12.30;99.90
47521;DHT22;32291;52.010;4.446;2023-06-01T04:13:22;12.20;99.90
47521;DHT22;32291;52.010;4.446;2023-06-01T04:14:24;12.30;99.90
47521;DHT22;32291;52.010;4.446;2023-06-01T04:15:26;12.30;99.90
47521;DHT22;32291;52.010;4.446;2023-06-01T04:16:27;12.30;99.90
47521;DHT22;32291;52.010;4.446;2023-06-01T04:17:29;12.30;99.90
47521;DHT22;32291;52.010;4.446;2023-06-01T04:18:31;12.30;99.90
47521;DHT22;32291;52.010;4.446;2023-06-01T04:19:34;12.30;99.90
47521;DHT22;32291;52.010;4.446;2023-06-01T04:20:36;12.40;99.90
47521;DHT22;32291;52.010;4.446;2023-06-01T04:21:38;12.40;99.90
47521;DHT22;32291;52.010;4.446;2023-06-01T04:22:40;12.40;99.90
47521;DHT22;32291;52.010;4.446;2023-06-01T04:23:43;12.40;99.90
47521;DHT22;32291;52.010;4.446;2023-06-01T04:24:45;12.40;99.90
47521;DHT22;32291;52.010;4.446;2023-06-01T04:25:47;12.40;99.90
47521;DHT22;32291;52.010;4.446;2023-06-01T04:26:52;12.50;99.90
47521;DHT22;32291;52.010;4.446;2023-06-01T04:27:54;12.50;99.90
47521;DHT22;32291;52.010;4.446;2023-06-01T04:28:56;12.50;99.90
47521;DHT22;32291;52.010;4.446;2023-06-01T04:29:59;12.50;99.90
47521;DHT22;32291;52.010;4.446;2023-06-01T04:31:01;12.60;99.90
47521;DHT22;32291;52.010;4.446;2023-06-01T04:32:03;12.60;99.90
47521;DHT22;32291;52.010;4.446;2023-06-01T04:33:06;12.70;99.90
47521;DHT22;32291;52.010;4.446;2023-06-01T04:34:08;12.70;99.90
47521;DHT22;32291;52.010;4.446;2023-06-01T04:35:11;12.70;99.90
47521;DHT22;32291;52.010;4.446;2023-06-01T04:36:13;12.70;99.90
47521;DHT22;32291;52.010;4.446;2023-06-01T04:37:18;12.70;99.90
47521;DHT22;32291;52.010;4.446;2023-06-01T04:38:23;12.80;99.90
47521;DHT22;32291;52.010;4.446;2023-06-01T04:39:26;12.80;99.90
47521;DHT22;32291;52.010;4.446;2023-06-01T04:40:31;12.80;99.90
47521;DHT22;32291;52.010;4.446;2023-06-01T04:41:35;12.90;99.90
47521;DHT22;32291;52.010;4.446;2023-06-01T04:42:38;12.90;99.90
47521;DHT22;32291;52.010;4.446;2023-06-01T04:43:52;13.00;99.90
47521;DHT22;32291;52.010;4.446;2023-06-01T04:44:55;13.00;99.90
47521;DHT22;32291;52.010;4.446;2023-06-01T04:46:02;13.00;99.90
47521;DHT22;32291;52.010;4.446;2023-06-01T04:47:05;12.90;99.90
47521;DHT22;32291;52.010;4.446;2023-06-01T04:48:07;12.90;99.90
47521;DHT22;32291;52.010;4.446;2023-06-01T04:49:12;12.90;99.90
47521;DHT22;32291;52.010;4.446;2023-06-01T04:50:16;13.00;99.90
47521;DHT22;32291;52.010;4.446;2023-06-01T04:51:19;13.00;99.90
47521;DHT22;32291;52.010;4.446;2023-06-01T04:52:24;13.00;99.90
47521;DHT22;32291;52.010;4.446;2023-06-01T04:53:31;13.00;99.90
47521;DHT22;32291;52.010;4.446;2023-06-01T04:54:33;12.90;99.90
47521;DHT22;32291;52.010;4.446;2023-06-01T04:55:37;12.90;99.90
47521;DHT22;32291;52.010;4.446;2023-06-01T04:56:39;12.90;99.90
47521;DHT22;32291;52.010;4.446;2023-06-01T04:57:41;12.90;99.90
47521;DHT22;32291;52.010;4.446;2023-06-01T04:58:46;12.90;99.90
47521;DHT22;32291;52.010;4.446;2023-06-01T04:59:48;12.90;99.90
47521;DHT22;32291;52.010;4.446;2023-06-01T05:00:51;13.00;99.90
47521;DHT22;32291;52.010;4.446;2023-06-01T05:02:02;12.90;99.90
47521;DHT22;32291;52.010;4.446;2023-06-01T05:03:05;13.00;99.90
47521;DHT22;32291;52.010;4.446;2023-06-01T05:04:06;13.00;99.90
47521;DHT22;32291;52.010;4.446;2023-06-01T05:05:08;13.10;99.90
47521;DHT22;32291;52.010;4.446;2023-06-01T05:06:13;13.10;99.90
47521;DHT22;32291;52.010;4.446;2023-06-01T05:07:15;13.20;99.90
47521;DHT22;32291;52.010;4.446;2023-06-01T05:08:22;13.20;99.90
47521;DHT22;32291;52.010;4.446;2023-06-01T05:09:25;13.20;99.90
47521;DHT22;32291;52.010;4.446;2023-06-01T05:10:26;13.20;99.90
47521;DHT22;32291;52.010;4.446;2023-06-01T05:11:28;13.20;99.90
47521;DHT22;32291;52.010;4.446;2023-06-01T05:12:34;13.30;99.90
47521;DHT22;32291;52.010;4.446;2023-06-01T05:13:37;13.40;99.90
47521;DHT22;32291;52.010;4.446;2023-06-01T05:14:39;13.40;99.90
47521;DHT22;32291;52.010;4.446;2023-06-01T05:15:42;13.40;99.90
47521;DHT22;32291;52.010;4.446;2023-06-01T05:16:47;13.50;99.90
47521;DHT22;32291;52.010;4.446;2023-06-01T05:17:51;13.50;99.90
47521;DHT22;32291;52.010;4.446;2023-06-01T05:18:53;13.60;99.90
47521;DHT22;32291;52.010;4.446;2023-06-01T05:19:56;13.60;99.90
47521;DHT22;32291;52.010;4.446;2023-06-01T05:21:01;13.70;99.90
47521;DHT22;32291;52.010;4.446;2023-06-01T05:22:03;13.70;99.90
47521;DHT22;32291;52.010;4.446;2023-06-01T05:23:06;13.70;99.90
47521;DHT22;32291;52.010;4.446;2023-06-01T05:24:08;13.80;99.90
47521;DHT22;32291;52.010;4.446;2023-06-01T05:25:10;13.80;99.90
47521;DHT22;32291;52.010;4.446;2023-06-01T05:26:12;13.90;99.90
47521;DHT22;32291;52.010;4.446;2023-06-01T05:27:13;14.00;99.90
47521;DHT22;32291;52.010;4.446;2023-06-01T05:28:15;14.00;99.90
47521;DHT22;32291;52.010;4.446;2023-06-01T05:29:25;14.10;99.90
47521;DHT22;32291;52.010;4.446;2023-06-01T05:30:27;14.10;99.90
47521;DHT22;32291;52.010;4.446;2023-06-01T05:31:33;14.20;99.90
47521;DHT22;32291;52.010;4.446;2023-06-01T05:32:38;14.30;99.90
47521;DHT22;32291;52.010;4.446;2023-06-01T05:33:41;14.30;99.90
47521;DHT22;32291;52.010;4.446;2023-06-01T05:34:46;14.30;99.90
47521;DHT22;32291;52.010;4.446;2023-06-01T05:35:48;14.40;99.90
47521;DHT22;32291;52.010;4.446;2023-06-01T05:36:52;14.40;99.90
47521;DHT22;32291;52.010;4.446;2023-06-01T05:37:54;14.40;99.90
47521;DHT22;32291;52.010;4.446;2023-06-01T05:38:56;14.50;99.90
47521;DHT22;32291;52.010;4.446;2023-06-01T05:39:58;14.40;99.90
47521;DHT22;32291;52.010;4.446;2023-06-01T05:41:00;14.20;99.90
47521;DHT22;32291;52.010;4.446;2023-06-01T05:42:07;14.10;99.90
47521;DHT22;32291;52.010;4.446;2023-06-01T05:43:10;13.90;99.90
47521;DHT22;32291;52.010;4.446;2023-06-01T05:44:15;13.90;99.90
47521;DHT22;32291;52.010;4.446;2023-06-01T05:45:17;14.00;99.90
47521;DHT22;32291;52.010;4.446;2023-06-01T05:46:21;14.00;99.90
47521;DHT22;32291;52.010;4.446;2023-06-01T05:47:26;14.10;99.90
47521;DHT22;32291;52.010;4.446;2023-06-01T05:48:27;14.10;99.90
47521;DHT22;32291;52.010;4.446;2023-06-01T05:49:35;14.20;99.90
47521;DHT22;32291;52.010;4.446;2023-06-01T05:50:36;14.30;99.90
47521;DHT22;32291;52.010;4.446;2023-06-01T05:51:43;14.20;99.90
47521;DHT22;32291;52.010;4.446;2023-06-01T05:52:44;14.30;99.90
47521;DHT22;32291;52.010;4.446;2023-06-01T05:53:46;14.40;99.90
47521;DHT22;32291;52.010;4.446;2023-06-01T05:54:52;14.40;99.90
47521;DHT22;32291;52.010;4.446;2023-06-01T05:55:55;14.50;99.90
47521;DHT22;32291;52.010;4.446;2023-06-01T05:56:57;14.60;99.90
47521;DHT22;32291;52.010;4.446;2023-06-01T05:57:58;14.60;99.90
47521;DHT22;32291;52.010;4.446;2023-06-01T05:59:00;14.60;99.90
47521;DHT22;32291;52.010;4.446;2023-06-01T06:00:04;14.70;99.90
47521;DHT22;32291;52.010;4.446;2023-06-01T06:01:11;14.70;99.90
47521;DHT22;32291;52.010;4.446;2023-06-01T06:02:15;14.70;99.90
47521;DHT22;32291;52.010;4.446;2023-06-01T06:03:17;14.70;99.90
47521;DHT22;32291;52.010;4.446;2023-06-01T06:04:19;14.70;99.90
47521;DHT22;32291;52.010;4.446;2023-06-01T06:05:23;14.60;99.90
47521;DHT22;32291;52.010;4.446;2023-06-01T06:06:25;14.50;99.90
47521;DHT22;32291;52.010;4.446;2023-06-01T06:07:29;14.50;99.90
47521;DHT22;32291;52.010;4.446;2023-06-01T06:08:35;14.50;99.90
47521;DHT22;32291;52.010;4.446;2023-06-01T06:09:37;14.60;99.90
47521;DHT22;32291;52.010;4.446;2023-06-01T06:10:39;14.60;99.90
47521;DHT22;32291;52.010;4.446;2023-06-01T06:11:43;14.60;99.90
47521;DHT22;32291;52.010;4.446;2023-06-01T06:12:45;14.70;99.90
47521;DHT22;32291;52.010;4.446;2023-06-01T06:13:52;14.70;99.90
47521;DHT22;32291;52.010;4.446;2023-06-01T06:14:54;14.80;99.90
47521;DHT22;32291;52.010;4.446;2023-06-01T06:15:56;14.90;99.90
47521;DHT22;32291;52.010;4.446;2023-06-01T06:16:57;15.00;99.90
47521;DHT22;32291;52.010;4.446;2023-06-01T06:18:00;14.90;99.90
47521;DHT22;32291;52.010;4.446;2023-06-01T06:19:02;14.90;99.90
47521;DHT22;32291;52.010;4.446;2023-06-01T06:20:05;14.80;99.90
47521;DHT22;32291;52.010;4.446;2023-06-01T06:21:08;14.90;99.90
47521;DHT22;32291;52.010;4.446;2023-06-01T06:22:10;15.00;99.90
47521;DHT22;32291;52.010;4.446;2023-06-01T06:23:12;14.90;99.90
47521;DHT22;32291;52.010;4.446;2023-06-01T06:24:14;15.00;99.90
47521;DHT22;32291;52.010;4.446;2023-06-01T06:25:16;15.10;99.90
47521;DHT22;32291;52.010;4.446;2023-06-01T06:26:18;15.10;99.90
47521;DHT22;32291;52.010;4.446;2023-06-01T06:27:21;15.20;99.90
47521;DHT22;32291;52.010;4.446;2023-06-01T06:28:23;15.20;99.90
47521;DHT22;32291;52.010;4.446;2023-06-01T06:29:26;15.30;99.90
47521;DHT22;32291;52.010;4.446;2023-06-01T06:30:30;15.30;99.90
47521;DHT22;32291;52.010;4.446;2023-06-01T06:31:33;15.50;99.90
47521;DHT22;32291;52.010;4.446;2023-06-01T06:32:34;15.60;99.90
47521;DHT22;32291;52.010;4.446;2023-06-01T06:33:36;15.70;99.90
47521;DHT22;32291;52.010;4.446;2023-06-01T06:34:38;15.70;99.90
47521;DHT22;32291;52.010;4.446;2023-06-01T06:35:40;15.70;99.90
47521;DHT22;32291;52.010;4.446;2023-06-01T06:36:43;15.60;99.90
47521;DHT22;32291;52.010;4.446;2023-06-01T06:37:45;15.60;99.90
47521;DHT22;32291;52.010;4.446;2023-06-01T06:38:47;15.70;99.90
47521;DHT22;32291;52.010;4.446;2023-06-01T06:39:49;15.80;99.90
47521;DHT22;32291;52.010;4.446;2023-06-01T06:40:53;15.90;99.90
47521;DHT22;32291;52.010;4.446;2023-06-01T06:41:55;15.90;99.90
47521;DHT22;32291;52.010;4.446;2023-06-01T06:42:56;16.10;99.90
47521;DHT22;32291;52.010;4.446;2023-06-01T06:44:02;16.30;99.90
47521;DHT22;32291;52.010;4.446;2023-06-01T06:45:08;16.30;99.90
47521;DHT22;32291;52.010;4.446;2023-06-01T06:46:15;16.30;99.90
47521;DHT22;32291;52.010;4.446;2023-06-01T06:47:19;16.10;99.90
47521;DHT22;32291;52.010;4.446;2023-06-01T06:48:22;16.00;99.90
47521;DHT22;32291;52.010;4.446;2023-06-01T06:49:24;16.00;99.90
47521;DHT22;32291;52.010;4.446;2023-06-01T06:50:25;15.90;99.90
47521;DHT22;32291;52.010;4.446;2023-06-01T06:51:27;15.80;99.90
47521;DHT22;32291;52.010;4.446;2023-06-01T06:52:30;15.90;99.90
47521;DHT22;32291;52.010;4.446;2023-06-01T06:53:35;15.90;99.90